Emerado, North Dakota
Current Conditions -  °F | °C
As of 6:58 PM on Wednesday 22 Oct 2014 (Local Time) from KRDR Reporting Station
Broken Clouds Broken Clouds  
Wind Chill: 55°   Ceiling: 5500
Heat Index: 55°   Visibility: 10mi
Dew Point: 54°   Wind: 8mph
Humidity: 99%   Direction: 210°SSW
Pressure: 29.84"   Gusts: NA
Location:  47.92°N, 97.37°W
Report Text: KRDR 222358Z AUTO 21007KT 10SM BKN055 BKN120 13/12 A2984 RMK AO2 RAB2301E2327 SLP112 P0001 60002 T01250123 10186 20125 53007
Loading
Personal Weather Stations






























Interactive Weather Map
Tropical Storm Tracking
New forecast layout! Learn more

10-Day Weather Forecast

Advertisements
Track Severe Weather on mobile